LNI1231 VHHH-RCTP
Flight info
| Callsign | LNI1231 |
|---|---|
| Flight time | 1h 14m |
| Altitude | 31000 |
| Route | DALOL V631 ENVAR M750 EXTRA/N0457F290 M750 TONGA TONGA1A |
| Aircraft | B739/M-SDE2E3FGHIRWXY/LB1 |
Departure
| Time | 2026-04-30 21:21 |
|---|---|
| Airport | Hong Kong International Airport (VHHH) |
Arrival
| Time | 2026-04-30 22:36 |
|---|---|
| Airport | Taiwan Taoyuan International Airport (RCTP) |
| Time | Latitude | Longitude | Altitude | Speed | Heading |
|---|---|---|---|---|---|
| 2026-04-30 21:12 | 22.31727 | 113.92881 | 29 ft | 0 kts | 84° |
| 2026-04-30 21:13 | 22.31733 | 113.92885 | 28 ft | 2 kts | 28° |
| 2026-04-30 21:13 | 22.31752 | 113.92874 | 30 ft | 0 kts | 321° |
| 2026-04-30 21:13 | 22.31764 | 113.92861 | 30 ft | 9 kts | 310° |
| 2026-04-30 21:14 | 22.31768 | 113.92759 | 30 ft | 18 kts | 254° |
| 2026-04-30 21:14 | 22.31751 | 113.92703 | 30 ft | 0 kts | 252° |
| 2026-04-30 21:15 | 22.31746 | 113.92685 | 30 ft | 6 kts | 250° |
| 2026-04-30 21:15 | 22.31720 | 113.92610 | 30 ft | 16 kts | 250° |
| 2026-04-30 21:15 | 22.31673 | 113.92467 | 30 ft | 23 kts | 251° |
| 2026-04-30 21:15 | 22.31618 | 113.92295 | 29 ft | 26 kts | 251° |
| 2026-04-30 21:16 | 22.31555 | 113.92100 | 29 ft | 29 kts | 251° |
| 2026-04-30 21:16 | 22.31488 | 113.91885 | 29 ft | 32 kts | 249° |
| 2026-04-30 21:16 | 22.31412 | 113.91654 | 30 ft | 34 kts | 251° |
| 2026-04-30 21:16 | 22.31333 | 113.91406 | 30 ft | 36 kts | 251° |
| 2026-04-30 21:17 | 22.31251 | 113.91157 | 30 ft | 35 kts | 251° |
| 2026-04-30 21:17 | 22.31175 | 113.90918 | 29 ft | 32 kts | 251° |
| 2026-04-30 21:17 | 22.31105 | 113.90699 | 29 ft | 30 kts | 251° |
| 2026-04-30 21:17 | 22.31039 | 113.90495 | 29 ft | 28 kts | 251° |
| 2026-04-30 21:18 | 22.30978 | 113.90302 | 29 ft | 26 kts | 251° |
| 2026-04-30 21:18 | 22.30920 | 113.90119 | 29 ft | 25 kts | 251° |
| 2026-04-30 21:18 | 22.30865 | 113.89949 | 29 ft | 23 kts | 250° |
| 2026-04-30 21:18 | 22.30856 | 113.89832 | 29 ft | 15 kts | 309° |
| 2026-04-30 21:19 | 22.30946 | 113.89789 | 29 ft | 14 kts | 342° |
| 2026-04-30 21:19 | 22.30983 | 113.89776 | 29 ft | 0 kts | 341° |
| 2026-04-30 21:20 | 22.31036 | 113.89758 | 29 ft | 11 kts | 350° |
| 2026-04-30 21:20 | 22.31094 | 113.89804 | 29 ft | 12 kts | 68° |
| 2026-04-30 21:20 | 22.31097 | 113.89813 | 29 ft | 0 kts | 69° |
| 2026-04-30 21:20 | 22.31101 | 113.89823 | 29 ft | 16 kts | 69° |
| 2026-04-30 21:21 | 22.31232 | 113.90224 | 27 ft | 96 kts | 70° |
| 2026-04-30 21:21 | 22.31655 | 113.91508 | 43 ft | 174 kts | 70° |
| 2026-04-30 21:21 | 22.32475 | 113.94387 | 836 ft | 229 kts | 71° |
| 2026-04-30 21:22 | 22.33028 | 113.96047 | 1622 ft | 236 kts | 70° |
| 2026-04-30 21:22 | 22.33973 | 114.00418 | 3874 ft | 222 kts | 82° |
| 2026-04-30 21:23 | 22.34231 | 114.02070 | 4448 ft | 224 kts | 82° |
| 2026-04-30 21:23 | 22.34390 | 114.03775 | 4917 ft | 233 kts | 96° |
| 2026-04-30 21:23 | 22.33148 | 114.06978 | 6006 ft | 243 kts | 137° |
| 2026-04-30 21:24 | 22.31762 | 114.08083 | 6384 ft | 254 kts | 158° |
| 2026-04-30 21:24 | 22.30072 | 114.08661 | 6932 ft | 256 kts | 174° |
| 2026-04-30 21:24 | 22.28294 | 114.08774 | 7522 ft | 260 kts | 184° |
| 2026-04-30 21:24 | 22.26418 | 114.08736 | 7822 ft | 278 kts | 184° |
| 2026-04-30 21:25 | 22.22472 | 114.08670 | 9047 ft | 287 kts | 184° |
| 2026-04-30 21:25 | 22.20466 | 114.08648 | 9719 ft | 290 kts | 185° |
| 2026-04-30 21:25 | 22.18428 | 114.08650 | 10274 ft | 298 kts | 180° |
| 2026-04-30 21:26 | 22.14693 | 114.11152 | 10548 ft | 357 kts | 123° |
| 2026-04-30 21:26 | 22.13518 | 114.13588 | 10732 ft | 375 kts | 117° |
| 2026-04-30 21:27 | 22.11238 | 114.18764 | 11625 ft | 385 kts | 118° |
| 2026-04-30 21:27 | 22.10034 | 114.21357 | 12197 ft | 387 kts | 119° |
| 2026-04-30 21:27 | 22.08807 | 114.23943 | 12740 ft | 389 kts | 119° |
| 2026-04-30 21:28 | 22.05287 | 114.28247 | 13766 ft | 386 kts | 148° |
| 2026-04-30 21:28 | 22.03086 | 114.29923 | 14236 ft | 389 kts | 148° |
| 2026-04-30 21:28 | 21.98645 | 114.33355 | 15102 ft | 396 kts | 147° |
| 2026-04-30 21:29 | 21.96409 | 114.35113 | 15553 ft | 399 kts | 147° |
| 2026-04-30 21:29 | 21.89618 | 114.40468 | 16850 ft | 407 kts | 147° |
| 2026-04-30 21:30 | 21.85268 | 114.44382 | 17593 ft | 421 kts | 128° |
| 2026-04-30 21:31 | 21.82347 | 114.53439 | 18722 ft | 435 kts | 106° |
| 2026-04-30 21:31 | 21.80797 | 114.59757 | 19417 ft | 439 kts | 107° |
| 2026-04-30 21:32 | 21.79177 | 114.66129 | 20109 ft | 442 kts | 107° |
| 2026-04-30 21:32 | 21.78353 | 114.69323 | 20458 ft | 444 kts | 107° |
| 2026-04-30 21:32 | 21.77522 | 114.72536 | 20784 ft | 447 kts | 107° |
| 2026-04-30 21:32 | 21.76688 | 114.75760 | 21093 ft | 449 kts | 107° |
| 2026-04-30 21:33 | 21.75847 | 114.79010 | 21400 ft | 451 kts | 107° |
| 2026-04-30 21:33 | 21.74286 | 114.85575 | 22011 ft | 457 kts | 97° |
| 2026-04-30 21:33 | 21.74169 | 114.89004 | 22313 ft | 460 kts | 90° |
| 2026-04-30 21:34 | 21.74219 | 114.92450 | 22627 ft | 462 kts | 89° |
| 2026-04-30 21:34 | 21.74338 | 114.99389 | 23192 ft | 466 kts | 90° |
| 2026-04-30 21:34 | 21.74359 | 115.02886 | 23468 ft | 468 kts | 90° |
| 2026-04-30 21:35 | 21.74359 | 115.06404 | 23679 ft | 471 kts | 90° |
| 2026-04-30 21:35 | 21.74346 | 115.09937 | 23901 ft | 473 kts | 91° |
| 2026-04-30 21:35 | 21.74331 | 115.13481 | 24136 ft | 474 kts | 91° |
| 2026-04-30 21:35 | 21.74316 | 115.17032 | 24366 ft | 476 kts | 91° |
| 2026-04-30 21:36 | 21.74302 | 115.20599 | 24586 ft | 478 kts | 91° |
| 2026-04-30 21:36 | 21.74291 | 115.24177 | 24795 ft | 479 kts | 91° |
| 2026-04-30 21:37 | 21.74271 | 115.34940 | 25406 ft | 485 kts | 91° |
| 2026-04-30 21:37 | 21.74262 | 115.38571 | 25581 ft | 487 kts | 91° |
| 2026-04-30 21:37 | 21.74253 | 115.42222 | 25778 ft | 489 kts | 91° |
| 2026-04-30 21:37 | 21.74242 | 115.45884 | 25991 ft | 490 kts | 91° |
| 2026-04-30 21:38 | 21.74230 | 115.49558 | 26201 ft | 492 kts | 91° |
| 2026-04-30 21:38 | 21.74218 | 115.53239 | 26400 ft | 493 kts | 91° |
| 2026-04-30 21:38 | 21.74205 | 115.56939 | 26586 ft | 495 kts | 91° |
| 2026-04-30 21:38 | 21.74191 | 115.60647 | 26775 ft | 497 kts | 91° |
| 2026-04-30 21:39 | 21.74178 | 115.64364 | 26966 ft | 498 kts | 91° |
| 2026-04-30 21:39 | 21.74165 | 115.68102 | 27113 ft | 501 kts | 91° |
| 2026-04-30 21:39 | 21.74151 | 115.71856 | 27277 ft | 503 kts | 91° |
| 2026-04-30 21:39 | 21.74136 | 115.75626 | 27479 ft | 504 kts | 91° |
| 2026-04-30 21:40 | 21.74121 | 115.79398 | 27676 ft | 505 kts | 91° |
| 2026-04-30 21:40 | 21.74104 | 115.83184 | 27854 ft | 507 kts | 91° |
| 2026-04-30 21:40 | 21.74087 | 115.86977 | 28021 ft | 508 kts | 91° |
| 2026-04-30 21:40 | 21.74068 | 115.90785 | 28192 ft | 510 kts | 91° |
| 2026-04-30 21:41 | 21.74049 | 115.94552 | 28360 ft | 511 kts | 91° |
| 2026-04-30 21:41 | 21.74029 | 115.98379 | 28563 ft | 511 kts | 91° |
| 2026-04-30 21:41 | 21.74007 | 116.02197 | 28802 ft | 511 kts | 91° |
| 2026-04-30 21:41 | 21.73985 | 116.06019 | 29076 ft | 510 kts | 91° |
| 2026-04-30 21:42 | 21.73963 | 116.09833 | 29348 ft | 510 kts | 91° |
| 2026-04-30 21:42 | 21.73939 | 116.13641 | 29599 ft | 509 kts | 91° |
| 2026-04-30 21:42 | 21.73914 | 116.17456 | 29845 ft | 509 kts | 91° |
| 2026-04-30 21:42 | 21.73888 | 116.21260 | 30105 ft | 509 kts | 91° |
| 2026-04-30 21:43 | 21.73862 | 116.25069 | 30341 ft | 508 kts | 91° |
| 2026-04-30 21:43 | 21.73835 | 116.28869 | 30569 ft | 508 kts | 91° |
| 2026-04-30 21:43 | 21.73806 | 116.32677 | 30774 ft | 509 kts | 91° |
| 2026-04-30 21:43 | 21.73777 | 116.36479 | 31019 ft | 508 kts | 91° |
| 2026-04-30 21:44 | 21.73717 | 116.44085 | 31015 ft | 508 kts | 91° |
| 2026-04-30 21:44 | 21.73653 | 116.51669 | 31013 ft | 506 kts | 91° |
| 2026-04-30 21:45 | 21.73586 | 116.59220 | 31012 ft | 504 kts | 91° |
| 2026-04-30 21:45 | 21.73516 | 116.66757 | 31019 ft | 504 kts | 91° |
| 2026-04-30 21:46 | 21.73448 | 116.74292 | 31021 ft | 504 kts | 90° |
| 2026-04-30 21:46 | 21.74477 | 116.81747 | 31028 ft | 505 kts | 71° |
| 2026-04-30 21:47 | 21.77007 | 116.88792 | 31013 ft | 506 kts | 66° |
| 2026-04-30 21:47 | 21.79642 | 116.95780 | 31021 ft | 508 kts | 67° |
| 2026-04-30 21:48 | 21.82248 | 117.02870 | 31021 ft | 510 kts | 67° |
| 2026-04-30 21:48 | 21.84823 | 117.09997 | 31019 ft | 512 kts | 67° |
| 2026-04-30 21:49 | 21.87399 | 117.17149 | 31017 ft | 512 kts | 68° |
| 2026-04-30 21:49 | 21.89974 | 117.24302 | 31018 ft | 512 kts | 68° |
| 2026-04-30 21:50 | 21.92545 | 117.31447 | 31017 ft | 511 kts | 68° |
| 2026-04-30 21:50 | 21.95107 | 117.38581 | 31022 ft | 510 kts | 68° |
| 2026-04-30 21:51 | 21.97663 | 117.45704 | 31016 ft | 509 kts | 68° |
| 2026-04-30 21:51 | 22.00511 | 117.52658 | 31008 ft | 505 kts | 57° |
| 2026-04-30 21:52 | 22.04197 | 117.59074 | 31018 ft | 503 kts | 55° |
| 2026-04-30 21:52 | 22.07935 | 117.65459 | 31015 ft | 503 kts | 56° |
| 2026-04-30 21:53 | 22.11604 | 117.71884 | 31019 ft | 503 kts | 56° |
| 2026-04-30 21:53 | 22.15242 | 117.78336 | 31034 ft | 504 kts | 57° |
| 2026-04-30 21:54 | 22.18881 | 117.84801 | 31020 ft | 504 kts | 57° |
| 2026-04-30 21:54 | 22.22523 | 117.91269 | 31019 ft | 504 kts | 57° |
| 2026-04-30 21:55 | 22.26164 | 117.97741 | 31020 ft | 504 kts | 57° |
| 2026-04-30 21:55 | 22.29813 | 118.04146 | 31025 ft | 504 kts | 56° |
| 2026-04-30 21:56 | 22.33576 | 118.10529 | 31022 ft | 504 kts | 55° |
| 2026-04-30 21:56 | 22.37334 | 118.16926 | 31042 ft | 504 kts | 56° |
| 2026-04-30 21:57 | 22.41065 | 118.23336 | 31031 ft | 504 kts | 56° |
| 2026-04-30 21:57 | 22.44724 | 118.29790 | 31018 ft | 503 kts | 57° |
| 2026-04-30 21:58 | 22.48361 | 118.36250 | 31022 ft | 502 kts | 57° |
| 2026-04-30 21:58 | 22.51999 | 118.42694 | 31020 ft | 501 kts | 57° |
| 2026-04-30 21:59 | 22.55633 | 118.49128 | 31025 ft | 501 kts | 57° |
| 2026-04-30 22:00 | 22.61104 | 118.58759 | 31029 ft | 501 kts | 56° |
| 2026-04-30 22:00 | 22.66602 | 118.68381 | 31030 ft | 501 kts | 56° |
| 2026-04-30 22:01 | 22.70263 | 118.74810 | 31034 ft | 502 kts | 57° |
| 2026-04-30 22:01 | 22.73898 | 118.81208 | 31029 ft | 502 kts | 57° |
| 2026-04-30 22:02 | 22.77560 | 118.87660 | 31030 ft | 503 kts | 57° |
| 2026-04-30 22:02 | 22.81221 | 118.94118 | 31041 ft | 503 kts | 57° |
| 2026-04-30 22:03 | 22.84880 | 119.00582 | 31027 ft | 503 kts | 57° |
| 2026-04-30 22:03 | 22.88536 | 119.07046 | 31025 ft | 502 kts | 57° |
| 2026-04-30 22:04 | 22.92186 | 119.13510 | 31018 ft | 502 kts | 57° |
| 2026-04-30 22:05 | 22.97626 | 119.23157 | 31027 ft | 501 kts | 57° |
| 2026-04-30 22:05 | 23.01263 | 119.29618 | 31031 ft | 501 kts | 57° |
| 2026-04-30 22:06 | 23.04892 | 119.36071 | 31021 ft | 501 kts | 57° |
| 2026-04-30 22:06 | 23.10325 | 119.45750 | 31021 ft | 500 kts | 57° |
| 2026-04-30 22:07 | 23.13939 | 119.52198 | 31024 ft | 499 kts | 57° |
| 2026-04-30 22:07 | 23.17720 | 119.58509 | 30992 ft | 496 kts | 44° |
| 2026-04-30 22:08 | 23.20322 | 119.60895 | 31028 ft | 487 kts | 28° |
| 2026-04-30 22:08 | 23.23234 | 119.62749 | 31042 ft | 485 kts | 26° |
| 2026-04-30 22:08 | 23.29140 | 119.66314 | 31020 ft | 486 kts | 25° |
| 2026-04-30 22:09 | 23.35021 | 119.69949 | 31014 ft | 487 kts | 26° |
| 2026-04-30 22:09 | 23.40881 | 119.73655 | 31022 ft | 487 kts | 26° |
| 2026-04-30 22:10 | 23.46737 | 119.77366 | 31031 ft | 487 kts | 27° |
| 2026-04-30 22:10 | 23.52500 | 119.81151 | 31017 ft | 487 kts | 29° |
| 2026-04-30 22:11 | 23.61057 | 119.87120 | 31015 ft | 486 kts | 29° |
| 2026-04-30 22:12 | 23.66733 | 119.91063 | 31001 ft | 478 kts | 29° |
| 2026-04-30 22:12 | 23.69528 | 119.92997 | 30598 ft | 473 kts | 29° |
| 2026-04-30 22:12 | 23.72293 | 119.94906 | 30181 ft | 468 kts | 29° |
| 2026-04-30 22:12 | 23.75034 | 119.96797 | 29625 ft | 464 kts | 29° |
| 2026-04-30 22:13 | 23.76834 | 119.98039 | 29260 ft | 461 kts | 29° |
| 2026-04-30 22:13 | 23.79530 | 119.99901 | 28729 ft | 456 kts | 29° |
| 2026-04-30 22:13 | 23.82201 | 120.01747 | 28217 ft | 452 kts | 29° |
| 2026-04-30 22:13 | 23.84846 | 120.03576 | 27709 ft | 448 kts | 29° |
| 2026-04-30 22:14 | 23.87468 | 120.05390 | 27209 ft | 444 kts | 29° |
| 2026-04-30 22:14 | 23.90063 | 120.07187 | 26700 ft | 440 kts | 29° |
| 2026-04-30 22:14 | 23.92645 | 120.08976 | 26206 ft | 437 kts | 29° |
| 2026-04-30 22:14 | 23.95200 | 120.10747 | 25717 ft | 434 kts | 30° |
| 2026-04-30 22:15 | 23.97745 | 120.12509 | 25196 ft | 432 kts | 29° |
| 2026-04-30 22:15 | 24.00278 | 120.14267 | 24710 ft | 429 kts | 29° |
| 2026-04-30 22:15 | 24.02794 | 120.16014 | 24210 ft | 427 kts | 30° |
| 2026-04-30 22:15 | 24.05292 | 120.17750 | 23710 ft | 424 kts | 29° |
| 2026-04-30 22:16 | 24.07756 | 120.19463 | 23143 ft | 414 kts | 30° |
| 2026-04-30 22:16 | 24.10167 | 120.21137 | 22661 ft | 408 kts | 30° |
| 2026-04-30 22:17 | 24.17282 | 120.26086 | 21239 ft | 400 kts | 30° |
| 2026-04-30 22:17 | 24.19625 | 120.27715 | 20790 ft | 397 kts | 30° |
| 2026-04-30 22:17 | 24.24269 | 120.30955 | 19847 ft | 395 kts | 29° |
| 2026-04-30 22:18 | 24.26584 | 120.32570 | 19387 ft | 393 kts | 29° |
| 2026-04-30 22:18 | 24.31188 | 120.35782 | 18473 ft | 391 kts | 29° |
| 2026-04-30 22:19 | 24.35741 | 120.38961 | 17481 ft | 388 kts | 30° |
| 2026-04-30 22:19 | 24.38007 | 120.40542 | 17029 ft | 385 kts | 30° |
| 2026-04-30 22:19 | 24.42501 | 120.43685 | 16130 ft | 381 kts | 29° |
| 2026-04-30 22:20 | 24.44712 | 120.45232 | 15667 ft | 372 kts | 30° |
| 2026-04-30 22:20 | 24.48994 | 120.48232 | 14827 ft | 362 kts | 28° |
| 2026-04-30 22:20 | 24.51118 | 120.49719 | 14385 ft | 362 kts | 29° |
| 2026-04-30 22:21 | 24.53235 | 120.51202 | 13963 ft | 361 kts | 29° |
| 2026-04-30 22:21 | 24.55348 | 120.52683 | 13484 ft | 360 kts | 28° |
| 2026-04-30 22:21 | 24.57453 | 120.54160 | 13044 ft | 358 kts | 28° |
| 2026-04-30 22:21 | 24.59548 | 120.55630 | 12603 ft | 356 kts | 28° |
| 2026-04-30 22:22 | 24.61631 | 120.57092 | 12159 ft | 355 kts | 29° |
| 2026-04-30 22:22 | 24.63708 | 120.58551 | 11725 ft | 353 kts | 30° |
| 2026-04-30 22:22 | 24.65771 | 120.60000 | 11306 ft | 351 kts | 28° |
| 2026-04-30 22:22 | 24.67821 | 120.61464 | 10868 ft | 352 kts | 31° |
| 2026-04-30 22:23 | 24.69714 | 120.63153 | 10500 ft | 344 kts | 39° |
| 2026-04-30 22:23 | 24.71435 | 120.64890 | 10299 ft | 328 kts | 41° |
| 2026-04-30 22:23 | 24.73060 | 120.66559 | 10150 ft | 311 kts | 38° |
| 2026-04-30 22:23 | 24.74609 | 120.68140 | 10008 ft | 296 kts | 39° |
| 2026-04-30 22:24 | 24.76107 | 120.69648 | 9702 ft | 290 kts | 40° |
| 2026-04-30 22:24 | 24.77592 | 120.71128 | 9422 ft | 287 kts | 38° |
| 2026-04-30 22:24 | 24.79073 | 120.72597 | 9090 ft | 286 kts | 40° |
| 2026-04-30 22:24 | 24.80550 | 120.74056 | 8758 ft | 285 kts | 39° |
| 2026-04-30 22:25 | 24.82022 | 120.75507 | 8453 ft | 284 kts | 39° |
| 2026-04-30 22:25 | 24.83488 | 120.76953 | 8144 ft | 283 kts | 40° |
| 2026-04-30 22:25 | 24.84954 | 120.78397 | 7830 ft | 282 kts | 40° |
| 2026-04-30 22:25 | 24.86412 | 120.79835 | 7521 ft | 282 kts | 40° |
| 2026-04-30 22:26 | 24.89328 | 120.82708 | 6929 ft | 281 kts | 41° |
| 2026-04-30 22:26 | 24.90770 | 120.84159 | 6612 ft | 282 kts | 47° |
| 2026-04-30 22:26 | 24.91693 | 120.86016 | 6335 ft | 271 kts | 82° |
| 2026-04-30 22:27 | 24.91847 | 120.87977 | 6229 ft | 248 kts | 97° |
| 2026-04-30 22:27 | 24.91763 | 120.89786 | 6061 ft | 231 kts | 97° |
| 2026-04-30 22:27 | 24.91534 | 120.93337 | 5215 ft | 233 kts | 98° |
| 2026-04-30 22:28 | 24.91344 | 120.96749 | 4954 ft | 218 kts | 96° |
| 2026-04-30 22:28 | 24.91257 | 120.98405 | 4868 ft | 215 kts | 97° |
| 2026-04-30 22:29 | 24.91158 | 121.03159 | 4332 ft | 207 kts | 70° |
| 2026-04-30 22:29 | 24.91957 | 121.04428 | 4145 ft | 197 kts | 45° |
| 2026-04-30 22:30 | 24.95300 | 121.08555 | 3333 ft | 162 kts | 50° |
| 2026-04-30 22:31 | 24.97452 | 121.11309 | 2736 ft | 149 kts | 51° |
| 2026-04-30 22:32 | 24.99494 | 121.13922 | 2122 ft | 148 kts | 52° |
| 2026-04-30 22:32 | 25.00792 | 121.15583 | 1749 ft | 141 kts | 50° |
| 2026-04-30 22:33 | 25.02784 | 121.18130 | 1155 ft | 149 kts | 51° |
| 2026-04-30 22:33 | 25.04134 | 121.19854 | 764 ft | 150 kts | 49° |
| 2026-04-30 22:34 | 25.06158 | 121.22443 | 144 ft | 144 kts | 51° |
| 2026-04-30 22:35 | 25.07158 | 121.23719 | 82 ft | 58 kts | 47° |
| 2026-04-30 22:36 | 25.07543 | 121.24155 | 82 ft | 21 kts | 37° |
| 2026-04-30 22:36 | 25.07617 | 121.24192 | 85 ft | 10 kts | 19° |
| 2026-04-30 22:37 | 25.07666 | 121.24211 | 81 ft | 0 kts | 19° |
| 2026-04-30 22:37 | 25.07695 | 121.24219 | 85 ft | 11 kts | 6° |
| 2026-04-30 22:37 | 25.07706 | 121.24089 | 82 ft | 20 kts | 230° |
| 2026-04-30 22:38 | 25.07647 | 121.24015 | 83 ft | 4 kts | 228° |
| 2026-04-30 22:38 | 25.07561 | 121.23909 | 85 ft | 16 kts | 229° |
| 2026-04-30 22:39 | 25.07490 | 121.23817 | 86 ft | 13 kts | 229° |
| 2026-04-30 22:39 | 25.07284 | 121.23554 | 85 ft | 19 kts | 229° |
| 2026-04-30 22:40 | 25.07165 | 121.23218 | 87 ft | 16 kts | 320° |
| 2026-04-30 22:41 | 25.07395 | 121.23375 | 84 ft | 14 kts | 49° |
| 2026-04-30 22:41 | 25.07531 | 121.23490 | 83 ft | 11 kts | 332° |
| 2026-04-30 22:42 | 25.07596 | 121.23431 | 89 ft | 0 kts | 319° |